sensor_id;sensor_type;location;lat;lon;timestamp;pressure;altitude;pressure_sealevel;temperature;humidity
70954;BME280;58618;47.490;8.736;2023-04-27T00:01:49;96609.09;;;8.61;100.00
70954;BME280;58618;47.490;8.736;2023-04-27T00:04:36;96613.19;;;8.67;100.00
70954;BME280;58618;47.490;8.736;2023-04-27T00:07:25;96612.41;;;8.57;100.00
70954;BME280;58618;47.490;8.736;2023-04-27T00:10:13;96611.16;;;8.49;100.00
70954;BME280;58618;47.490;8.736;2023-04-27T00:13:00;96602.41;;;8.50;100.00
70954;BME280;58618;47.490;8.736;2023-04-27T00:15:48;96607.56;;;8.60;100.00
70954;BME280;58618;47.490;8.736;2023-04-27T00:18:35;96601.38;;;8.86;100.00
70954;BME280;58618;47.490;8.736;2023-04-27T00:21:23;96603.69;;;8.73;100.00
70954;BME280;58618;47.490;8.736;2023-04-27T00:24:11;96595.47;;;8.56;100.00
70954;BME280;58618;47.490;8.736;2023-04-27T00:26:59;96601.41;;;8.61;100.00
70954;BME280;58618;47.490;8.736;2023-04-27T00:29:46;96590.59;;;8.49;100.00
70954;BME280;58618;47.490;8.736;2023-04-27T00:32:33;96583.88;;;8.43;100.00
70954;BME280;58618;47.490;8.736;2023-04-27T00:35:21;96600.09;;;8.69;100.00
70954;BME280;58618;47.490;8.736;2023-04-27T00:38:12;96579.78;;;8.47;100.00
70954;BME280;58618;47.490;8.736;2023-04-27T00:41:01;96581.84;;;8.60;100.00
70954;BME280;58618;47.490;8.736;2023-04-27T00:43:48;96587.47;;;8.67;100.00
70954;BME280;58618;47.490;8.736;2023-04-27T00:46:36;96588.00;;;8.44;100.00
70954;BME280;58618;47.490;8.736;2023-04-27T00:49:25;96576.69;;;8.40;100.00
70954;BME280;58618;47.490;8.736;2023-04-27T00:52:13;96582.81;;;8.24;100.00
70954;BME280;58618;47.490;8.736;2023-04-27T00:55:01;96576.91;;;8.28;100.00
70954;BME280;58618;47.490;8.736;2023-04-27T00:57:51;96580.78;;;8.46;100.00
70954;BME280;58618;47.490;8.736;2023-04-27T01:00:38;96573.13;;;8.51;100.00
70954;BME280;58618;47.490;8.736;2023-04-27T01:03:26;96579.75;;;8.32;100.00
70954;BME280;58618;47.490;8.736;2023-04-27T01:06:13;96579.75;;;8.32;100.00
70954;BME280;58618;47.490;8.736;2023-04-27T01:09:01;96576.69;;;8.60;100.00
70954;BME280;58618;47.490;8.736;2023-04-27T01:11:49;96581.06;;;8.60;100.00
70954;BME280;58618;47.490;8.736;2023-04-27T01:14:38;96579.75;;;8.32;100.00
70954;BME280;58618;47.490;8.736;2023-04-27T01:17:25;96585.63;;;8.22;100.00
70954;BME280;58618;47.490;8.736;2023-04-27T01:20:13;96587.00;;;8.50;100.00
70954;BME280;58618;47.490;8.736;2023-04-27T01:23:00;96584.41;;;8.55;100.00
70954;BME280;58618;47.490;8.736;2023-04-27T01:25:49;96584.91;;;8.32;100.00
70954;BME280;58618;47.490;8.736;2023-04-27T01:28:37;96586.41;;;8.28;100.00
70954;BME280;58618;47.490;8.736;2023-04-27T01:31:24;96595.19;;;8.32;100.00
70954;BME280;58618;47.490;8.736;2023-04-27T01:34:12;96590.56;;;8.34;100.00
70954;BME280;58618;47.490;8.736;2023-04-27T01:36:59;96593.69;;;8.51;100.00
70954;BME280;58618;47.490;8.736;2023-04-27T01:39:46;96601.34;;;8.36;100.00
70954;BME280;58618;47.490;8.736;2023-04-27T01:42:35;96585.91;;;8.31;100.00
70954;BME280;58618;47.490;8.736;2023-04-27T01:45:23;96593.88;;;8.29;100.00
70954;BME280;58618;47.490;8.736;2023-04-27T01:48:10;96594.09;;;8.13;100.00
70954;BME280;58618;47.490;8.736;2023-04-27T01:50:57;96597.94;;;8.10;100.00
70954;BME280;58618;47.490;8.736;2023-04-27T01:53:45;96605.22;;;8.38;100.00
70954;BME280;58618;47.490;8.736;2023-04-27T01:56:32;96600.34;;;8.52;100.00
70954;BME280;58618;47.490;8.736;2023-04-27T01:59:21;96609.59;;;8.43;100.00
70954;BME280;58618;47.490;8.736;2023-04-27T02:02:08;96610.59;;;8.32;100.00
70954;BME280;58618;47.490;8.736;2023-04-27T02:04:55;96623.38;;;8.17;100.00
70954;BME280;58618;47.490;8.736;2023-04-27T02:07:43;96613.66;;;8.24;100.00
70954;BME280;58618;47.490;8.736;2023-04-27T02:10:30;96616.72;;;8.26;100.00
70954;BME280;58618;47.490;8.736;2023-04-27T02:13:17;96617.44;;;8.06;100.00
70954;BME280;58618;47.490;8.736;2023-04-27T02:16:06;96617.44;;;7.96;100.00
70954;BME280;58618;47.490;8.736;2023-04-27T02:18:54;96601.75;;;7.92;100.00
70954;BME280;58618;47.490;8.736;2023-04-27T02:21:41;96610.28;;;8.08;100.00
70954;BME280;58618;47.490;8.736;2023-04-27T02:24:28;96610.09;;;8.30;100.00
70954;BME280;58618;47.490;8.736;2023-04-27T02:27:16;96595.13;;;8.22;100.00
70954;BME280;58618;47.490;8.736;2023-04-27T02:30:04;96600.84;;;8.34;100.00
70954;BME280;58618;47.490;8.736;2023-04-27T02:32:53;96573.53;;;8.07;100.00
70954;BME280;58618;47.490;8.736;2023-04-27T02:35:41;96593.09;;;8.14;100.00
70954;BME280;58618;47.490;8.736;2023-04-27T02:38:28;96598.00;;;8.35;100.00
70954;BME280;58618;47.490;8.736;2023-04-27T02:41:16;96592.31;;;8.18;100.00
70954;BME280;58618;47.490;8.736;2023-04-27T02:44:03;96583.06;;;8.22;100.00
70954;BME280;58618;47.490;8.736;2023-04-27T02:46:51;96594.09;;;8.13;100.00
70954;BME280;58618;47.490;8.736;2023-04-27T02:49:39;96580.72;;;8.05;100.00
70954;BME280;58618;47.490;8.736;2023-04-27T02:52:27;96579.66;;;7.91;100.00
70954;BME280;58618;47.490;8.736;2023-04-27T02:55:14;96571.94;;;7.86;100.00
70954;BME280;58618;47.490;8.736;2023-04-27T02:58:02;96568.34;;;7.87;100.00
70954;BME280;58618;47.490;8.736;2023-04-27T03:00:53;96574.19;;;7.73;100.00
70954;BME280;58618;47.490;8.736;2023-04-27T03:03:40;96579.59;;;7.71;100.00
70954;BME280;58618;47.490;8.736;2023-04-27T03:06:31;96584.03;;;7.91;100.00
70954;BME280;58618;47.490;8.736;2023-04-27T03:09:19;96587.13;;;7.93;100.00
70954;BME280;58618;47.490;8.736;2023-04-27T03:12:06;96585.81;;;7.85;100.00
70954;BME280;58618;47.490;8.736;2023-04-27T03:14:53;96584.25;;;7.84;100.00
70954;BME280;58618;47.490;8.736;2023-04-27T03:17:41;96583.75;;;7.77;100.00
70954;BME280;58618;47.490;8.736;2023-04-27T03:20:28;96592.94;;;7.73;100.00
70954;BME280;58618;47.490;8.736;2023-04-27T03:23:18;96591.94;;;7.79;100.00
70954;BME280;58618;47.490;8.736;2023-04-27T03:26:06;96583.69;;;7.67;100.00
70954;BME280;58618;47.490;8.736;2023-04-27T03:28:53;96601.16;;;7.70;100.00
70954;BME280;58618;47.490;8.736;2023-04-27T03:31:41;96601.91;;;7.66;100.00
70954;BME280;58618;47.490;8.736;2023-04-27T03:34:28;96605.78;;;7.78;100.00
70954;BME280;58618;47.490;8.736;2023-04-27T03:37:15;96597.34;;;7.83;100.00
70954;BME280;58618;47.490;8.736;2023-04-27T03:40:05;96604.81;;;7.94;100.00
70954;BME280;58618;47.490;8.736;2023-04-27T03:42:53;96601.75;;;7.92;100.00
70954;BME280;58618;47.490;8.736;2023-04-27T03:45:40;96604.53;;;7.81;100.00
70954;BME280;58618;47.490;8.736;2023-04-27T03:48:28;96605.88;;;7.98;100.00
70954;BME280;58618;47.490;8.736;2023-04-27T03:51:15;96610.94;;;7.83;100.00
70954;BME280;58618;47.490;8.736;2023-04-27T03:54:03;96608.88;;;7.70;100.00
70954;BME280;58618;47.490;8.736;2023-04-27T03:56:52;96609.41;;;7.77;100.00
70954;BME280;58618;47.490;8.736;2023-04-27T03:59:39;96612.44;;;7.69;100.00
70954;BME280;58618;47.490;8.736;2023-04-27T04:02:26;96614.00;;;7.75;100.00
70954;BME280;58618;47.490;8.736;2023-04-27T04:05:14;96612.00;;;7.82;100.00
70954;BME280;58618;47.490;8.736;2023-04-27T04:08:01;96616.63;;;7.85;100.00
70954;BME280;58618;47.490;8.736;2023-04-27T04:10:49;96624.53;;;7.74;100.00
70954;BME280;58618;47.490;8.736;2023-04-27T04:13:38;96617.59;;;7.69;100.00
70954;BME280;58618;47.490;8.736;2023-04-27T04:16:27;96625.81;;;7.71;100.00
70954;BME280;58618;47.490;8.736;2023-04-27T04:19:14;96628.38;;;7.66;100.00
70954;BME280;58618;47.490;8.736;2023-04-27T04:22:01;96629.19;;;7.82;100.00
70954;BME280;58618;47.490;8.736;2023-04-27T04:24:49;96617.13;;;7.82;100.00
70954;BME280;58618;47.490;8.736;2023-04-27T04:27:36;96635.09;;;7.77;100.00
70954;BME280;58618;47.490;8.736;2023-04-27T04:30:25;96632.84;;;7.96;100.00
70954;BME280;58618;47.490;8.736;2023-04-27T04:33:12;96631.06;;;8.01;100.00
70954;BME280;58618;47.490;8.736;2023-04-27T04:36:02;96626.66;;;7.92;100.00
70954;BME280;58618;47.490;8.736;2023-04-27T04:38:49;96633.06;;;7.89;100.00
70954;BME280;58618;47.490;8.736;2023-04-27T04:41:36;96625.13;;;7.91;100.00
70954;BME280;58618;47.490;8.736;2023-04-27T04:44:24;96625.38;;;7.94;100.00
70954;BME280;58618;47.490;8.736;2023-04-27T04:47:13;96624.84;;;7.87;100.00
70954;BME280;58618;47.490;8.736;2023-04-27T04:50:00;96623.75;;;7.73;100.00
70954;BME280;58618;47.490;8.736;2023-04-27T04:52:49;96632.56;;;7.92;100.00
70954;BME280;58618;47.490;8.736;2023-04-27T04:55:36;96632.78;;;7.81;100.00
70954;BME280;58618;47.490;8.736;2023-04-27T04:58:24;96644.94;;;8.05;100.00
70954;BME280;58618;47.490;8.736;2023-04-27T05:01:11;96632.13;;;8.26;100.00
70954;BME280;58618;47.490;8.736;2023-04-27T05:04:00;96629.53;;;8.11;100.00
70954;BME280;58618;47.490;8.736;2023-04-27T05:06:47;96639.56;;;8.12;100.00
70954;BME280;58618;47.490;8.736;2023-04-27T05:09:34;96633.66;;;8.17;100.00
70954;BME280;58618;47.490;8.736;2023-04-27T05:12:22;96628.09;;;8.40;100.00
70954;BME280;58618;47.490;8.736;2023-04-27T05:15:10;96640.97;;;8.60;100.00
70954;BME280;58618;47.490;8.736;2023-04-27T05:17:57;96633.03;;;8.77;100.00
70954;BME280;58618;47.490;8.736;2023-04-27T05:20:46;96635.84;;;8.70;100.00
70954;BME280;58618;47.490;8.736;2023-04-27T05:23:33;96635.06;;;8.80;100.00
70954;BME280;58618;47.490;8.736;2023-04-27T05:26:21;96638.66;;;8.94;100.00
70954;BME280;58618;47.490;8.736;2023-04-27T05:29:08;96639.19;;;8.91;100.00
70954;BME280;58618;47.490;8.736;2023-04-27T05:31:56;96628.38;;;8.94;100.00
70954;BME280;58618;47.490;8.736;2023-04-27T05:34:43;96640.47;;;9.19;100.00
70954;BME280;58618;47.490;8.736;2023-04-27T05:37:32;96631.69;;;9.10;100.00
70954;BME280;58618;47.490;8.736;2023-04-27T05:40:19;96636.31;;;9.33;100.00
70954;BME280;58618;47.490;8.736;2023-04-27T05:43:07;96648.13;;;9.44;100.00
70954;BME280;58618;47.490;8.736;2023-04-27T05:45:54;96649.69;;;9.50;100.00
70954;BME280;58618;47.490;8.736;2023-04-27T05:48:41;96652.22;;;9.60;100.00
70954;BME280;58618;47.490;8.736;2023-04-27T05:51:29;96657.34;;;9.70;100.00
70954;BME280;58618;47.490;8.736;2023-04-27T05:54:18;96657.31;;;9.81;100.00
70954;BME280;58618;47.490;8.736;2023-04-27T05:57:05;96660.66;;;9.76;100.00
70954;BME280;58618;47.490;8.736;2023-04-27T05:59:53;96657.03;;;9.87;100.00
70954;BME280;58618;47.490;8.736;2023-04-27T06:02:40;96659.63;;;9.82;100.00
70954;BME280;58618;47.490;8.736;2023-04-27T06:05:27;96660.13;;;9.79;100.00
70954;BME280;58618;47.490;8.736;2023-04-27T06:08:15;96650.84;;;9.93;100.00
70954;BME280;58618;47.490;8.736;2023-04-27T06:11:04;96652.34;;;9.94;100.00
70954;BME280;58618;47.490;8.736;2023-04-27T06:13:51;96663.94;;;10.02;100.00
70954;BME280;58618;47.490;8.736;2023-04-27T06:16:39;96661.78;;;10.24;100.00
70954;BME280;58618;47.490;8.736;2023-04-27T06:19:26;96663.69;;;10.52;100.00
70954;BME280;58618;47.490;8.736;2023-04-27T06:22:13;96668.41;;;10.40;100.00
70954;BME280;58618;47.490;8.736;2023-04-27T06:25:01;96672.56;;;10.31;100.00
70954;BME280;58618;47.490;8.736;2023-04-27T06:27:50;96676.59;;;10.47;100.00
70954;BME280;58618;47.490;8.736;2023-04-27T06:30:38;96673.00;;;10.48;100.00
70954;BME280;58618;47.490;8.736;2023-04-27T06:33:25;96672.06;;;10.34;100.00
70954;BME280;58618;47.490;8.736;2023-04-27T06:36:13;96671.59;;;10.22;100.00
70954;BME280;58618;47.490;8.736;2023-04-27T06:39:00;96676.78;;;10.66;100.00
70954;BME280;58618;47.490;8.736;2023-04-27T06:41:48;96674.69;;;11.02;100.00
70954;BME280;58618;47.490;8.736;2023-04-27T06:44:36;96683.69;;;11.38;100.00
70954;BME280;58618;47.490;8.736;2023-04-27T06:47:24;96683.34;;;11.74;100.00
70954;BME280;58618;47.490;8.736;2023-04-27T06:50:11;96682.81;;;12.62;100.00
70954;BME280;58618;47.490;8.736;2023-04-27T06:52:59;96688.34;;;13.99;100.00
70954;BME280;58618;47.490;8.736;2023-04-27T06:55:46;96687.88;;;13.23;100.00
70954;BME280;58618;47.490;8.736;2023-04-27T06:58:34;96688.34;;;12.74;100.00
70954;BME280;58618;47.490;8.736;2023-04-27T07:01:24;96674.81;;;13.15;100.00
70954;BME280;58618;47.490;8.736;2023-04-27T07:04:11;96684.50;;;14.10;98.85
70954;BME280;58618;47.490;8.736;2023-04-27T07:06:58;96693.84;;;14.60;92.89
70954;BME280;58618;47.490;8.736;2023-04-27T07:09:46;96699.97;;;14.15;95.71
70954;BME280;58618;47.490;8.736;2023-04-27T07:12:34;96695.44;;;14.07;94.02
70954;BME280;58618;47.490;8.736;2023-04-27T07:15:26;96701.56;;;14.24;93.81
70954;BME280;58618;47.490;8.736;2023-04-27T07:18:15;96701.75;;;13.46;98.79
70954;BME280;58618;47.490;8.736;2023-04-27T07:21:03;96698.66;;;12.93;100.00
70954;BME280;58618;47.490;8.736;2023-04-27T07:23:50;96701.84;;;12.71;100.00
70954;BME280;58618;47.490;8.736;2023-04-27T07:26:37;96702.59;;;12.72;100.00
70954;BME280;58618;47.490;8.736;2023-04-27T07:29:24;96695.53;;;13.15;100.00
70954;BME280;58618;47.490;8.736;2023-04-27T07:32:14;96701.13;;;12.84;100.00
70954;BME280;58618;47.490;8.736;2023-04-27T07:35:04;96709.44;;;12.25;100.00
70954;BME280;58618;47.490;8.736;2023-04-27T07:37:51;96706.34;;;12.23;100.00
70954;BME280;58618;47.490;8.736;2023-04-27T07:40:38;96693.03;;;12.72;100.00
70954;BME280;58618;47.490;8.736;2023-04-27T07:43:26;96686.66;;;12.83;100.00
70954;BME280;58618;47.490;8.736;2023-04-27T07:46:13;96694.63;;;12.68;100.00
70954;BME280;58618;47.490;8.736;2023-04-27T07:49:01;96692.66;;;13.16;100.00
70954;BME280;58618;47.490;8.736;2023-04-27T07:51:50;96689.84;;;13.45;100.00
70954;BME280;58618;47.490;8.736;2023-04-27T07:54:39;96686.72;;;12.78;100.00
70954;BME280;58618;47.490;8.736;2023-04-27T07:57:26;96674.22;;;12.66;100.00
70954;BME280;58618;47.490;8.736;2023-04-27T08:00:14;96675.31;;;12.60;100.00
70954;BME280;58618;47.490;8.736;2023-04-27T08:03:01;96688.00;;;12.62;100.00
70954;BME280;58618;47.490;8.736;2023-04-27T08:05:49;96680.97;;;12.44;100.00
70954;BME280;58618;47.490;8.736;2023-04-27T08:08:38;96691.47;;;12.71;100.00
70954;BME280;58618;47.490;8.736;2023-04-27T08:11:25;96691.13;;;12.59;100.00
70954;BME280;58618;47.490;8.736;2023-04-27T08:14:12;96687.84;;;12.72;100.00
70954;BME280;58618;47.490;8.736;2023-04-27T08:17:00;96691.41;;;13.87;99.20
70954;BME280;58618;47.490;8.736;2023-04-27T08:19:47;96689.56;;;14.15;100.00
70954;BME280;58618;47.490;8.736;2023-04-27T08:22:34;96683.50;;;13.51;99.49
70954;BME280;58618;47.490;8.736;2023-04-27T08:25:23;96677.53;;;13.37;100.00
70954;BME280;58618;47.490;8.736;2023-04-27T08:28:11;96679.13;;;13.92;97.52
70954;BME280;58618;47.490;8.736;2023-04-27T08:30:59;96682.34;;;14.12;97.63
70954;BME280;58618;47.490;8.736;2023-04-27T08:33:46;96670.47;;;14.38;97.38
70954;BME280;58618;47.490;8.736;2023-04-27T08:36:34;96679.47;;;14.99;94.91
70954;BME280;58618;47.490;8.736;2023-04-27T08:39:22;96681.06;;;15.31;89.40
70954;BME280;58618;47.490;8.736;2023-04-27T08:42:11;96674.63;;;16.81;85.95
70954;BME280;58618;47.490;8.736;2023-04-27T08:44:58;96680.81;;;16.20;83.52
70954;BME280;58618;47.490;8.736;2023-04-27T08:47:46;96683.69;;;16.18;82.13
70954;BME280;58618;47.490;8.736;2023-04-27T08:50:36;96683.22;;;15.59;83.86
70954;BME280;58618;47.490;8.736;2023-04-27T08:53:24;96674.50;;;15.33;91.03
70954;BME280;58618;47.490;8.736;2023-04-27T08:56:12;96676.16;;;15.07;84.76
70954;BME280;58618;47.490;8.736;2023-04-27T08:59:11;96680.63;;;15.37;84.93
70954;BME280;58618;47.490;8.736;2023-04-27T09:01:59;96685.44;;;15.75;88.42
70954;BME280;58618;47.490;8.736;2023-04-27T09:04:46;96678.06;;;15.77;77.47
70954;BME280;58618;47.490;8.736;2023-04-27T09:07:33;96676.72;;;17.05;74.14
70954;BME280;58618;47.490;8.736;2023-04-27T09:10:21;96672.41;;;18.10;71.59
70954;BME280;58618;47.490;8.736;2023-04-27T09:13:09;96668.66;;;17.53;76.33
70954;BME280;58618;47.490;8.736;2023-04-27T09:15:58;96658.09;;;17.41;70.18
70954;BME280;58618;47.490;8.736;2023-04-27T09:18:45;96665.03;;;18.12;69.80
70954;BME280;58618;47.490;8.736;2023-04-27T09:21:33;96659.75;;;18.21;65.38
70954;BME280;58618;47.490;8.736;2023-04-27T09:24:20;96662.56;;;18.78;63.65
70954;BME280;58618;47.490;8.736;2023-04-27T09:27:08;96666.22;;;18.65;59.12
70954;BME280;58618;47.490;8.736;2023-04-27T09:29:55;96660.56;;;19.29;59.12
70954;BME280;58618;47.490;8.736;2023-04-27T09:32:53;96657.84;;;18.92;63.49
70954;BME280;58618;47.490;8.736;2023-04-27T09:35:40;96656.53;;;18.86;59.29
70954;BME280;58618;47.490;8.736;2023-04-27T09:38:29;96658.41;;;18.36;64.55
70954;BME280;58618;47.490;8.736;2023-04-27T09:41:17;96657.81;;;17.25;68.95
70954;BME280;58618;47.490;8.736;2023-04-27T09:44:06;96657.69;;;18.56;58.36
70954;BME280;58618;47.490;8.736;2023-04-27T09:46:54;96652.16;;;18.07;59.12
70954;BME280;58618;47.490;8.736;2023-04-27T09:49:45;96649.16;;;16.61;64.71
70954;BME280;58618;47.490;8.736;2023-04-27T09:52:35;96644.28;;;16.68;67.86
70954;BME280;58618;47.490;8.736;2023-04-27T09:55:26;96642.88;;;16.87;68.04
70954;BME280;58618;47.490;8.736;2023-04-27T09:58:28;96634.47;;;16.73;70.63
70954;BME280;58618;47.490;8.736;2023-04-27T10:01:23;96643.25;;;17.33;63.34
70954;BME280;58618;47.490;8.736;2023-04-27T10:04:33;96635.94;;;17.64;62.47
70954;BME280;58618;47.490;8.736;2023-04-27T10:07:25;96633.00;;;17.19;60.86
70954;BME280;58618;47.490;8.736;2023-04-27T10:10:17;96635.81;;;16.71;64.11
70954;BME280;58618;47.490;8.736;2023-04-27T10:13:05;96640.19;;;15.93;65.52
70954;BME280;58618;47.490;8.736;2023-04-27T10:15:53;96633.31;;;16.05;62.63
70954;BME280;58618;47.490;8.736;2023-04-27T10:18:50;96632.41;;;17.05;62.74
70954;BME280;58618;47.490;8.736;2023-04-27T10:21:50;96633.09;;;17.40;60.30
70954;BME280;58618;47.490;8.736;2023-04-27T10:24:40;96632.19;;;17.36;60.06
70954;BME280;58618;47.490;8.736;2023-04-27T10:27:38;96628.22;;;18.05;58.07
70954;BME280;58618;47.490;8.736;2023-04-27T10:30:32;96634.53;;;18.25;56.47
70954;BME280;58618;47.490;8.736;2023-04-27T10:33:21;96629.66;;;17.65;64.92
70954;BME280;58618;47.490;8.736;2023-04-27T10:36:13;96639.56;;;17.34;61.11
70954;BME280;58618;47.490;8.736;2023-04-27T10:39:01;96634.44;;;16.99;60.92
70954;BME280;58618;47.490;8.736;2023-04-27T10:41:51;96636.00;;;16.92;65.59
70954;BME280;58618;47.490;8.736;2023-04-27T10:44:39;96635.28;;;17.20;62.14
70954;BME280;58618;47.490;8.736;2023-04-27T10:47:36;96627.88;;;16.59;65.94
70954;BME280;58618;47.490;8.736;2023-04-27T10:50:24;96617.88;;;16.09;66.47
70954;BME280;58618;47.490;8.736;2023-04-27T10:53:13;96629.53;;;16.37;64.10
70954;BME280;58618;47.490;8.736;2023-04-27T10:56:01;96620.19;;;16.54;65.74
70954;BME280;58618;47.490;8.736;2023-04-27T10:58:50;96618.53;;;17.39;60.77
70954;BME280;58618;47.490;8.736;2023-04-27T11:01:39;96616.91;;;17.17;62.46
70954;BME280;58618;47.490;8.736;2023-04-27T11:04:37;96612.91;;;17.19;64.68
70954;BME280;58618;47.490;8.736;2023-04-27T11:07:27;96609.22;;;17.20;62.51
70954;BME280;58618;47.490;8.736;2023-04-27T11:10:15;96613.16;;;17.44;61.14
70954;BME280;58618;47.490;8.736;2023-04-27T11:13:08;96615.19;;;17.76;63.93
70954;BME280;58618;47.490;8.736;2023-04-27T11:15:58;96621.69;;;16.98;62.59
70954;BME280;58618;47.490;8.736;2023-04-27T11:18:46;96610.94;;;17.63;59.53
70954;BME280;58618;47.490;8.736;2023-04-27T11:21:33;96616.34;;;17.49;60.72
70954;BME280;58618;47.490;8.736;2023-04-27T11:24:21;96617.22;;;17.62;59.16
70954;BME280;58618;47.490;8.736;2023-04-27T11:27:08;96616.97;;;16.57;60.68
70954;BME280;58618;47.490;8.736;2023-04-27T11:29:55;96620.03;;;16.93;59.67
70954;BME280;58618;47.490;8.736;2023-04-27T11:32:44;96606.13;;;16.80;60.94
70954;BME280;58618;47.490;8.736;2023-04-27T11:35:32;96608.69;;;16.89;58.18
70954;BME280;58618;47.490;8.736;2023-04-27T11:38:19;96608.72;;;16.80;58.77
70954;BME280;58618;47.490;8.736;2023-04-27T11:41:07;96607.28;;;17.47;60.63
70954;BME280;58618;47.490;8.736;2023-04-27T11:44:03;96614.81;;;17.40;61.39
70954;BME280;58618;47.490;8.736;2023-04-27T11:46:50;96610.84;;;17.80;61.06
70954;BME280;58618;47.490;8.736;2023-04-27T11:49:39;96608.47;;;17.96;62.42
70954;BME280;58618;47.490;8.736;2023-04-27T11:52:33;96601.25;;;17.25;58.06
70954;BME280;58618;47.490;8.736;2023-04-27T11:55:21;96601.66;;;17.74;57.56
70954;BME280;58618;47.490;8.736;2023-04-27T11:58:12;96587.22;;;18.27;55.28
70954;BME280;58618;47.490;8.736;2023-04-27T12:01:00;96586.69;;;18.33;58.51
70954;BME280;58618;47.490;8.736;2023-04-27T12:03:48;96591.13;;;18.74;53.80
70954;BME280;58618;47.490;8.736;2023-04-27T12:06:36;96582.91;;;17.81;56.18
70954;BME280;58618;47.490;8.736;2023-04-27T12:09:24;96586.94;;;18.20;55.53
70954;BME280;58618;47.490;8.736;2023-04-27T12:12:11;96586.25;;;18.10;53.78
70954;BME280;58618;47.490;8.736;2023-04-27T12:14:59;96580.66;;;18.21;54.05
70954;BME280;58618;47.490;8.736;2023-04-27T12:17:46;96573.84;;;18.28;55.32
70954;BME280;58618;47.490;8.736;2023-04-27T12:20:34;96576.50;;;18.20;54.72
70954;BME280;58618;47.490;8.736;2023-04-27T12:23:23;96564.97;;;18.21;56.56
70954;BME280;58618;47.490;8.736;2023-04-27T12:26:11;96570.38;;;18.36;51.61
70954;BME280;58618;47.490;8.736;2023-04-27T12:28:59;96565.16;;;18.57;50.46
70954;BME280;58618;47.490;8.736;2023-04-27T12:31:46;96575.47;;;18.53;51.15
70954;BME280;58618;47.490;8.736;2023-04-27T12:34:34;96572.72;;;18.71;50.88
70954;BME280;58618;47.490;8.736;2023-04-27T12:37:21;96564.53;;;18.39;50.94
70954;BME280;58618;47.490;8.736;2023-04-27T12:40:10;96561.72;;;18.65;48.08
70954;BME280;58618;47.490;8.736;2023-04-27T12:42:59;96561.06;;;18.68;50.47
70954;BME280;58618;47.490;8.736;2023-04-27T12:45:46;96562.47;;;18.66;49.32
70954;BME280;58618;47.490;8.736;2023-04-27T12:48:34;96563.78;;;17.97;51.24
70954;BME280;58618;47.490;8.736;2023-04-27T12:51:21;96563.63;;;18.14;49.43
70954;BME280;58618;47.490;8.736;2023-04-27T12:54:09;96569.47;;;18.53;50.26
70954;BME280;58618;47.490;8.736;2023-04-27T12:56:59;96564.78;;;18.79;48.16
70954;BME280;58618;47.490;8.736;2023-04-27T12:59:51;96573.34;;;18.68;52.03
70954;BME280;58618;47.490;8.736;2023-04-27T13:02:38;96559.44;;;18.43;54.27
70954;BME280;58618;47.490;8.736;2023-04-27T13:05:26;96560.31;;;18.47;54.08
70954;BME280;58618;47.490;8.736;2023-04-27T13:08:14;96549.84;;;18.68;49.93
70954;BME280;58618;47.490;8.736;2023-04-27T13:11:01;96549.06;;;18.55;47.67
70954;BME280;58618;47.490;8.736;2023-04-27T13:13:50;96545.28;;;18.44;45.48
70954;BME280;58618;47.490;8.736;2023-04-27T13:16:38;96532.81;;;17.87;48.55
70954;BME280;58618;47.490;8.736;2023-04-27T13:19:26;96530.38;;;18.44;48.47
70954;BME280;58618;47.490;8.736;2023-04-27T13:22:14;96541.28;;;18.79;45.56
70954;BME280;58618;47.490;8.736;2023-04-27T13:25:01;96535.03;;;18.72;48.52
70954;BME280;58618;47.490;8.736;2023-04-27T13:27:50;96539.09;;;18.81;48.37
70954;BME280;58618;47.490;8.736;2023-04-27T13:30:38;96531.97;;;19.03;47.23
70954;BME280;58618;47.490;8.736;2023-04-27T13:33:26;96537.63;;;19.29;46.35
70954;BME280;58618;47.490;8.736;2023-04-27T13:36:13;96522.69;;;19.17;45.61
70954;BME280;58618;47.490;8.736;2023-04-27T13:39:01;96533.94;;;19.54;43.97
70954;BME280;58618;47.490;8.736;2023-04-27T13:41:48;96532.31;;;19.50;42.89
70954;BME280;58618;47.490;8.736;2023-04-27T13:44:36;96542.19;;;18.95;48.92
70954;BME280;58618;47.490;8.736;2023-04-27T13:47:24;96535.69;;;19.14;43.11
70954;BME280;58618;47.490;8.736;2023-04-27T13:50:14;96537.84;;;19.12;42.93
70954;BME280;58618;47.490;8.736;2023-04-27T13:53:01;96535.00;;;19.05;44.20
70954;BME280;58618;47.490;8.736;2023-04-27T13:55:48;96540.03;;;19.22;43.92
70954;BME280;58618;47.490;8.736;2023-04-27T13:58:36;96536.34;;;19.35;42.50
70954;BME280;58618;47.490;8.736;2023-04-27T14:01:23;96539.41;;;19.61;42.63
70954;BME280;58618;47.490;8.736;2023-04-27T14:04:13;96548.75;;;19.74;43.61
70954;BME280;58618;47.490;8.736;2023-04-27T14:07:00;96544.94;;;19.72;41.90
70954;BME280;58618;47.490;8.736;2023-04-27T14:09:47;96544.38;;;19.78;41.51
70954;BME280;58618;47.490;8.736;2023-04-27T14:12:35;96543.06;;;19.72;43.51
70954;BME280;58618;47.490;8.736;2023-04-27T14:15:22;96524.75;;;19.36;45.25
70954;BME280;58618;47.490;8.736;2023-04-27T14:18:10;96522.81;;;19.57;44.61
70954;BME280;58618;47.490;8.736;2023-04-27T14:20:59;96528.28;;;19.52;47.79
70954;BME280;58618;47.490;8.736;2023-04-27T14:23:46;96517.34;;;19.26;47.18
70954;BME280;58618;47.490;8.736;2023-04-27T14:26:34;96512.13;;;19.26;47.53
70954;BME280;58618;47.490;8.736;2023-04-27T14:29:21;96520.63;;;19.23;46.73
70954;BME280;58618;47.490;8.736;2023-04-27T14:32:09;96523.91;;;19.08;45.65
70954;BME280;58618;47.490;8.736;2023-04-27T14:34:56;96505.38;;;19.01;48.55
70954;BME280;58618;47.490;8.736;2023-04-27T14:37:45;96515.41;;;19.35;44.06
70954;BME280;58618;47.490;8.736;2023-04-27T14:40:32;96522.59;;;19.26;43.85
70954;BME280;58618;47.490;8.736;2023-04-27T14:43:19;96522.47;;;19.22;43.92
70954;BME280;58618;47.490;8.736;2023-04-27T14:46:07;96505.84;;;18.37;45.92
70954;BME280;58618;47.490;8.736;2023-04-27T14:48:54;96512.72;;;18.41;45.73
70954;BME280;58618;47.490;8.736;2023-04-27T14:51:41;96513.56;;;18.54;45.03